Soper, Oklahoma
Current Conditions -  °F | °C
As of 9:55 AM on Sunday 25 Jan 2015 (Local Time) from KHHW Reporting Station
Clear Clear  
Wind Chill: 56°   Ceiling: Unl
Heat Index: 56°   Visibility: 10mi
Dew Point: 37°   Wind: 13mph
Humidity: 49%   Direction: 310°NW
Pressure: 29.93"   Gusts: 20mph
Location:  34.03°N, 95.7°W
Report Text: KHHW 251555Z AUTO 31011G17KT 10SM CLR 13/03 A2993 RMK AO2 T01330027
Loading
Personal Weather Stations






























Interactive Weather Map New forecast layout! Learn more

10-Day Weather Forecast

Advertisements
Track Severe Weather on mobile